createdAt,value
2019-02-15T00:01:24.874Z,77.10
2019-02-15T00:03:51.889Z,66.67
2019-02-15T00:06:18.817Z,71.03
2019-02-15T00:08:45.727Z,71.77
2019-02-15T00:11:12.698Z,65.67
2019-02-15T00:13:39.627Z,72.27
2019-02-15T00:16:06.557Z,69.67
2019-02-15T00:18:39.578Z,77.47
2019-02-15T00:21:17.542Z,75.70
2019-02-15T00:23:44.506Z,66.23
2019-02-15T00:26:11.346Z,74.23
2019-02-15T00:28:38.258Z,66.80
2019-02-15T00:31:06.218Z,72.13
2019-02-15T00:33:33.208Z,66.53
2019-02-15T00:36:00.018Z,76.43
2019-02-15T00:38:26.989Z,73.90
2019-02-15T00:40:53.815Z,78.17
2019-02-15T00:43:22.506Z,67.23
2019-02-15T00:46:07.134Z,66.80
2019-02-15T00:48:34.037Z,68.93
2019-02-15T00:51:08.068Z,71.03
2019-02-15T00:53:53.055Z,68.77
2019-02-15T00:56:32.828Z,68.73
2019-02-15T00:59:18.256Z,77.30
2019-02-15T01:01:58.631Z,73.07
2019-02-15T01:04:35.010Z,72.87
2019-02-15T01:07:13.404Z,60.00
2019-02-15T01:10:06.609Z,59.73
2019-02-15T01:12:39.434Z,57.07
2019-02-15T01:15:06.445Z,44.03
2019-02-15T01:17:33.309Z,56.53
2019-02-15T01:20:00.314Z,54.33
2019-02-15T01:22:27.271Z,50.80
2019-02-15T01:25:14.257Z,47.77
2019-02-15T01:28:04.317Z,40.93
2019-02-15T01:30:43.650Z,48.33
2019-02-15T01:33:29.171Z,42.63
2019-02-15T01:36:10.450Z,38.27
2019-02-15T01:38:56.922Z,48.97
2019-02-15T01:41:40.056Z,55.77
2019-02-15T01:44:22.352Z,46.20
2019-02-15T01:47:14.192Z,43.13
2019-02-15T01:49:41.230Z,37.73
2019-02-15T01:52:08.045Z,41.50
2019-02-15T01:54:34.911Z,45.30
2019-02-15T01:57:01.726Z,45.07
2019-02-15T01:59:28.737Z,48.33
2019-02-15T02:01:55.694Z,41.43
2019-02-15T02:04:22.517Z,44.00
2019-02-15T02:06:49.540Z,43.43
2019-02-15T02:09:17.206Z,42.07
2019-02-15T02:11:44.043Z,46.67
2019-02-15T02:14:10.880Z,48.47
2019-02-15T02:16:37.984Z,45.10
2019-02-15T02:19:05.004Z,49.37
2019-02-15T02:21:31.934Z,48.10
2019-02-15T02:23:58.811Z,49.77
2019-02-15T02:26:25.632Z,43.90
2019-02-15T02:28:52.641Z,49.43
2019-02-15T02:31:20.206Z,53.27
2019-02-15T02:33:47.239Z,47.43
2019-02-15T02:36:14.150Z,45.77
2019-02-15T02:38:41.033Z,50.13
2019-02-15T02:41:08.146Z,50.27
2019-02-15T02:43:34.981Z,54.97
2019-02-15T02:46:01.957Z,54.47
2019-02-15T02:48:28.880Z,52.57
2019-02-15T02:50:57.051Z,44.17
2019-02-15T02:53:24.023Z,48.97
2019-02-15T02:55:50.991Z,40.53
2019-02-15T02:58:17.807Z,56.33
2019-02-15T03:00:44.645Z,50.53
2019-02-15T03:03:11.586Z,50.17
2019-02-15T03:05:38.672Z,60.87
2019-02-15T03:08:05.636Z,54.70
2019-02-15T03:10:32.753Z,58.13
2019-02-15T03:12:59.578Z,53.80
2019-02-15T03:15:26.466Z,41.53
2019-02-15T03:17:53.432Z,49.43
2019-02-15T03:20:30.532Z,57.93
2019-02-15T03:22:49.246Z,50.37
2019-02-15T03:25:16.083Z,53.47
2019-02-15T03:27:43.315Z,51.20
2019-02-15T03:30:10.471Z,62.70
2019-02-15T03:32:57.131Z,48.17
2019-02-15T03:35:24.384Z,49.97
2019-02-15T03:38:12.682Z,60.73
2019-02-15T03:40:42.247Z,62.23
2019-02-15T03:43:09.361Z,53.27
2019-02-15T03:45:36.193Z,58.17
2019-02-15T03:48:03.386Z,62.10
2019-02-15T03:50:30.205Z,62.00
2019-02-15T03:52:57.151Z,75.93
2019-02-15T03:55:24.106Z,83.77
2019-02-15T03:57:51.050Z,76.90
2019-02-15T04:00:18.093Z,82.93
2019-02-15T04:02:45.251Z,86.27
2019-02-15T04:05:12.158Z,78.30
2019-02-15T04:07:39.095Z,86.80
2019-02-15T04:10:07.290Z,84.50
2019-02-15T04:12:34.332Z,78.57
2019-02-15T04:15:01.278Z,82.30
2019-02-15T04:17:28.230Z,92.37
2019-02-15T04:19:55.153Z,82.67
2019-02-15T04:22:21.975Z,82.43
2019-02-15T04:24:48.933Z,77.77
2019-02-15T04:27:15.859Z,101.23
2019-02-15T04:29:42.757Z,99.87
2019-02-15T04:32:09.609Z,97.67
2019-02-15T04:34:36.463Z,94.53
2019-02-15T04:37:03.380Z,126.07
2019-02-15T04:39:30.353Z,116.30
2019-02-15T04:41:58.459Z,132.47
2019-02-15T04:44:25.394Z,115.00
2019-02-15T04:46:52.351Z,111.67
2019-02-15T04:49:19.180Z,101.37
2019-02-15T04:51:46.121Z,129.13
2019-02-15T04:54:13.381Z,138.83
2019-02-15T04:56:40.219Z,116.70
2019-02-15T04:59:07.040Z,141.23
2019-02-15T05:01:34.004Z,175.57
2019-02-15T05:04:00.817Z,136.83
2019-02-15T05:06:27.736Z,136.27
2019-02-15T05:08:54.895Z,142.03
2019-02-15T05:11:21.798Z,153.47
2019-02-15T05:13:48.684Z,168.20
2019-02-15T05:16:15.865Z,143.57
2019-02-15T05:18:42.703Z,121.37
2019-02-15T05:21:09.544Z,147.37
2019-02-15T05:23:36.400Z,120.37
2019-02-15T05:26:03.420Z,131.93
2019-02-15T05:28:30.345Z,162.50
2019-02-15T05:30:57.315Z,151.57
2019-02-15T05:33:24.244Z,179.33
2019-02-15T05:35:51.226Z,160.93
2019-02-15T05:38:18.186Z,139.10
2019-02-15T05:40:46.505Z,169.43
2019-02-15T05:43:13.462Z,178.83
2019-02-15T05:45:40.305Z,167.37
2019-02-15T05:48:07.127Z,139.47
2019-02-15T05:50:33.947Z,139.60
2019-02-15T05:53:00.827Z,150.97
2019-02-15T05:55:27.663Z,139.60
2019-02-15T05:57:54.590Z,188.70
2019-02-15T06:00:21.438Z,221.33
2019-02-15T06:02:48.307Z,219.17
2019-02-15T06:05:15.173Z,188.60
2019-02-15T06:07:42.158Z,284.70
2019-02-15T06:10:09.177Z,204.23
2019-02-15T06:12:36.117Z,118.90
2019-02-15T06:15:14.415Z,126.73
2019-02-15T06:17:32.022Z,136.00
2019-02-15T06:19:58.949Z,190.53
2019-02-15T06:22:25.804Z,186.87
2019-02-15T06:24:52.850Z,155.93
2019-02-15T06:27:19.915Z,201.13
2019-02-15T06:29:46.986Z,234.57
2019-02-15T06:32:13.821Z,221.77
2019-02-15T06:34:43.589Z,272.33
2019-02-15T06:37:10.460Z,281.03
2019-02-15T06:39:37.609Z,262.70
2019-02-15T06:42:04.432Z,253.37
2019-02-15T06:44:31.363Z,306.17
2019-02-15T06:46:58.418Z,281.20
2019-02-15T06:49:25.514Z,243.00
2019-02-15T06:51:52.372Z,224.23
2019-02-15T06:54:19.290Z,224.70
2019-02-15T06:56:46.108Z,222.93
2019-02-15T06:59:36.850Z,237.53
2019-02-15T07:02:23.505Z,235.40
2019-02-15T07:04:58.767Z,194.03
2019-02-15T07:07:25.609Z,183.53
2019-02-15T07:09:52.446Z,206.90
2019-02-15T07:12:19.295Z,232.00
2019-02-15T07:14:48.342Z,278.13
2019-02-15T07:17:15.270Z,251.40
2019-02-15T07:19:43.775Z,204.33
2019-02-15T07:22:10.861Z,248.40
2019-02-15T07:24:37.717Z,183.87
2019-02-15T07:27:04.570Z,182.43
2019-02-15T07:29:31.532Z,146.27
2019-02-15T07:31:58.463Z,197.47
2019-02-15T07:34:25.567Z,179.23
2019-02-15T07:36:52.482Z,167.77
2019-02-15T07:39:19.306Z,235.87
2019-02-15T07:41:46.199Z,171.50
2019-02-15T07:44:13.336Z,241.97
2019-02-15T07:46:40.399Z,228.83
2019-02-15T07:49:07.535Z,236.70
2019-02-15T07:51:34.486Z,309.33
2019-02-15T07:54:01.307Z,307.47
2019-02-15T07:56:28.175Z,302.20
2019-02-15T07:58:55.095Z,290.87
2019-02-15T08:01:22.091Z,287.10
2019-02-15T08:04:08.891Z,261.20
2019-02-15T08:06:35.889Z,216.37
2019-02-15T08:09:07.581Z,256.77
2019-02-15T08:11:34.655Z,231.73
2019-02-15T08:14:01.482Z,198.97
2019-02-15T08:16:28.317Z,204.43
2019-02-15T08:18:55.211Z,185.60
2019-02-15T08:21:22.160Z,159.33
2019-02-15T08:23:49.063Z,166.37
2019-02-15T08:26:18.321Z,171.63
2019-02-15T08:28:45.156Z,109.53
2019-02-15T08:31:12.129Z,107.03
2019-02-15T08:33:38.980Z,115.57
2019-02-15T08:36:05.807Z,121.07
2019-02-15T08:38:32.879Z,120.80
2019-02-15T08:40:59.754Z,102.07
2019-02-15T08:43:26.573Z,103.80
2019-02-15T08:46:00.543Z,124.70
2019-02-15T08:48:22.174Z,109.67
2019-02-15T08:50:49.222Z,104.37
2019-02-15T08:53:16.025Z,93.20
2019-02-15T08:55:43.005Z,109.03
2019-02-15T08:58:11.360Z,107.83
2019-02-15T09:00:38.674Z,97.03
2019-02-15T09:03:05.583Z,99.10
2019-02-15T09:05:32.427Z,91.10
2019-02-15T09:07:59.373Z,78.67
2019-02-15T09:10:26.354Z,64.13
2019-02-15T09:12:53.308Z,64.27
2019-02-15T09:15:20.710Z,60.90
2019-02-15T09:17:47.806Z,54.07
2019-02-15T09:20:14.745Z,54.57
2019-02-15T09:22:41.663Z,59.30
2019-02-15T09:25:08.932Z,47.50
2019-02-15T09:27:59.599Z,47.77
2019-02-15T09:30:26.491Z,42.40
2019-02-15T09:32:53.305Z,45.67
2019-02-15T09:35:20.592Z,53.20
2019-02-15T09:37:47.555Z,53.30
2019-02-15T09:40:14.372Z,45.53
2019-02-15T09:42:41.589Z,49.27
2019-02-15T09:45:09.919Z,41.67
2019-02-15T09:47:37.865Z,47.07
2019-02-15T09:50:05.321Z,41.30
2019-02-15T09:52:32.477Z,47.90
2019-02-15T09:54:59.308Z,45.63
2019-02-15T09:57:26.343Z,50.67
2019-02-15T09:59:53.317Z,48.53
2019-02-15T10:02:20.255Z,45.60
2019-02-15T10:04:47.404Z,43.07
2019-02-15T10:07:14.370Z,43.73
2019-02-15T10:09:41.180Z,41.47
2019-02-15T10:12:07.984Z,42.90
2019-02-15T10:14:34.945Z,44.33
2019-02-15T10:17:01.920Z,44.43
2019-02-15T10:19:28.802Z,45.10
2019-02-15T10:21:55.889Z,47.47
2019-02-15T10:24:28.945Z,43.20
2019-02-15T10:26:55.775Z,47.47
2019-02-15T10:29:22.767Z,40.30
2019-02-15T10:31:49.643Z,45.03
2019-02-15T10:34:16.459Z,39.50
2019-02-15T10:36:43.299Z,38.90
2019-02-15T10:39:10.118Z,47.77
2019-02-15T10:41:36.938Z,49.77
2019-02-15T10:44:03.986Z,45.53
2019-02-15T10:46:37.632Z,40.27
2019-02-15T10:48:59.684Z,47.17
2019-02-15T10:51:28.780Z,36.33
2019-02-15T10:53:55.612Z,38.87
2019-02-15T10:56:22.660Z,42.83
2019-02-15T10:58:49.617Z,37.20
2019-02-15T11:01:16.585Z,30.13
2019-02-15T11:03:43.402Z,27.57
2019-02-15T11:06:10.260Z,29.30
2019-02-15T11:08:37.079Z,31.37
2019-02-15T11:11:04.118Z,35.33
2019-02-15T11:13:31.550Z,31.73
2019-02-15T11:15:58.373Z,42.97
2019-02-15T11:18:25.211Z,31.37
2019-02-15T11:20:52.333Z,36.00
2019-02-15T11:23:19.268Z,41.17
2019-02-15T11:25:46.198Z,36.93
2019-02-15T11:28:13.164Z,36.80
2019-02-15T11:30:40.016Z,37.07
2019-02-15T11:33:07.025Z,36.57
2019-02-15T11:35:33.865Z,40.83
2019-02-15T11:38:00.699Z,34.33
2019-02-15T11:40:27.533Z,35.30
2019-02-15T11:42:54.404Z,39.00
2019-02-15T11:45:21.301Z,37.53
2019-02-15T11:47:48.266Z,38.37
2019-02-15T11:50:16.470Z,41.40
2019-02-15T11:52:43.321Z,39.93
2019-02-15T11:55:10.442Z,35.30
2019-02-15T11:57:37.493Z,34.67
2019-02-15T12:00:13.938Z,39.03
2019-02-15T12:02:34.367Z,37.27
2019-02-15T12:05:01.242Z,39.90
2019-02-15T12:07:28.306Z,37.97
2019-02-15T12:09:55.228Z,32.90
2019-02-15T12:12:22.095Z,30.83
2019-02-15T12:14:48.954Z,32.20
2019-02-15T12:17:15.879Z,33.23
2019-02-15T12:19:42.722Z,30.93
2019-02-15T12:22:09.676Z,29.70
2019-02-15T12:24:36.519Z,33.73
2019-02-15T12:27:03.649Z,30.93
2019-02-15T12:29:30.469Z,32.43
2019-02-15T12:31:57.262Z,31.33
2019-02-15T12:34:24.154Z,27.67
2019-02-15T12:36:50.961Z,31.23
2019-02-15T12:39:17.799Z,27.67
2019-02-15T12:41:44.663Z,28.23
2019-02-15T12:44:11.475Z,27.90
2019-02-15T12:46:38.490Z,24.50
2019-02-15T12:49:06.823Z,24.77
2019-02-15T12:51:33.646Z,23.90
2019-02-15T12:54:00.650Z,23.67
2019-02-15T12:56:27.749Z,27.70
2019-02-15T12:58:54.542Z,27.70
2019-02-15T13:01:21.476Z,26.27
2019-02-15T13:03:48.526Z,23.13
2019-02-15T13:06:15.348Z,27.93
2019-02-15T13:08:42.255Z,25.80
2019-02-15T13:11:09.202Z,23.83
2019-02-15T13:13:36.050Z,24.67
2019-02-15T13:16:03.161Z,23.60
2019-02-15T13:18:30.023Z,22.57
2019-02-15T13:20:57.107Z,22.23
2019-02-15T13:23:24.002Z,24.03
2019-02-15T13:25:50.862Z,24.47
2019-02-15T13:28:17.792Z,25.57
2019-02-15T13:30:44.694Z,23.67
2019-02-15T13:33:11.557Z,25.23
2019-02-15T13:35:38.373Z,27.20
2019-02-15T13:38:05.297Z,22.40
2019-02-15T13:40:32.146Z,22.47
2019-02-15T13:42:59.044Z,22.27
2019-02-15T13:45:25.953Z,23.73
2019-02-15T13:47:52.852Z,21.80
2019-02-15T13:50:19.762Z,20.83
2019-02-15T13:52:46.676Z,19.73
2019-02-15T13:55:13.558Z,21.43
2019-02-15T13:57:40.369Z,23.20
2019-02-15T14:00:09.283Z,20.23
2019-02-15T14:02:36.151Z,20.10
2019-02-15T14:05:03.381Z,21.63
2019-02-15T14:07:30.202Z,21.67
2019-02-15T14:09:57.183Z,19.50
2019-02-15T14:12:23.999Z,20.70
2019-02-15T14:14:52.380Z,19.97
2019-02-15T14:17:19.704Z,20.90
2019-02-15T14:19:46.673Z,21.97
2019-02-15T14:22:13.604Z,22.27
2019-02-15T14:24:40.656Z,18.83
2019-02-15T14:27:07.651Z,17.70
2019-02-15T14:29:34.450Z,19.33
2019-02-15T14:32:01.430Z,20.27
2019-02-15T14:34:28.353Z,15.27
2019-02-15T14:36:55.292Z,18.53
2019-02-15T14:39:22.144Z,19.90
2019-02-15T14:41:49.183Z,16.90
2019-02-15T14:44:16.004Z,17.97
2019-02-15T14:46:42.931Z,18.40
2019-02-15T14:49:09.976Z,19.33
2019-02-15T14:51:36.921Z,18.63
2019-02-15T14:54:03.895Z,17.27
2019-02-15T14:56:30.807Z,16.77
2019-02-15T14:58:57.702Z,18.23
2019-02-15T15:01:24.583Z,20.10
2019-02-15T15:03:51.503Z,18.50
2019-02-15T15:06:18.312Z,19.27
2019-02-15T15:08:45.382Z,19.33
2019-02-15T15:11:12.179Z,19.00
2019-02-15T15:13:38.997Z,16.20
2019-02-15T15:16:06.158Z,17.63
2019-02-15T15:18:33.093Z,19.37
2019-02-15T15:20:59.924Z,20.47
2019-02-15T15:23:26.790Z,19.70
2019-02-15T15:25:53.683Z,19.50
2019-02-15T15:28:20.618Z,18.83
2019-02-15T15:30:47.672Z,18.63
2019-02-15T15:33:14.479Z,23.07
2019-02-15T15:35:41.289Z,22.47
2019-02-15T15:38:08.143Z,23.10
2019-02-15T15:40:35.121Z,25.30
2019-02-15T15:43:02.046Z,24.90
2019-02-15T15:45:29.118Z,21.83
2019-02-15T15:47:56.049Z,23.63
2019-02-15T15:50:22.886Z,31.57
2019-02-15T15:52:49.853Z,28.57
2019-02-15T15:55:17.767Z,25.13
2019-02-15T15:57:44.995Z,26.57
2019-02-15T16:00:12.901Z,25.87
2019-02-15T16:02:39.837Z,25.57
2019-02-15T16:05:07.426Z,24.90
2019-02-15T16:07:34.242Z,28.40
2019-02-15T16:10:01.039Z,25.90
2019-02-15T16:12:27.857Z,26.90
2019-02-15T16:14:54.715Z,26.93
2019-02-15T16:17:23.420Z,26.73
2019-02-15T16:19:52.231Z,32.07
2019-02-15T16:22:19.181Z,30.20
2019-02-15T16:24:46.000Z,28.10
2019-02-15T16:27:12.802Z,27.37
2019-02-15T16:29:39.632Z,32.30
2019-02-15T16:32:06.648Z,28.27
2019-02-15T16:34:33.450Z,35.30
2019-02-15T16:37:00.294Z,32.67
2019-02-15T16:39:27.126Z,31.03
2019-02-15T16:41:54.930Z,32.47
2019-02-15T16:44:21.777Z,28.83
2019-02-15T16:46:48.590Z,35.10
2019-02-15T16:49:15.406Z,35.63
2019-02-15T16:51:42.349Z,32.03
2019-02-15T16:54:09.295Z,33.30
2019-02-15T16:56:36.118Z,31.23
2019-02-15T16:59:03.057Z,31.70
2019-02-15T17:01:29.882Z,28.73
2019-02-15T17:03:56.708Z,33.23
2019-02-15T17:06:23.656Z,30.20
2019-02-15T17:08:50.566Z,32.20
2019-02-15T17:11:17.486Z,33.87
2019-02-15T17:13:44.330Z,33.50
2019-02-15T17:16:11.139Z,35.20
2019-02-15T17:18:37.945Z,31.33
2019-02-15T17:21:04.909Z,33.50
2019-02-15T17:23:31.729Z,35.67
2019-02-15T17:25:58.575Z,34.27
2019-02-15T17:28:25.421Z,34.80
2019-02-15T17:30:52.298Z,37.03
2019-02-15T17:33:19.182Z,37.53
2019-02-15T17:35:46.030Z,36.83
2019-02-15T17:38:12.849Z,31.47
2019-02-15T17:40:39.655Z,37.57
2019-02-15T17:43:06.513Z,42.40
2019-02-15T17:45:33.527Z,45.67
2019-02-15T17:48:00.377Z,44.97
2019-02-15T17:50:27.323Z,46.93
2019-02-15T17:52:54.177Z,50.10
2019-02-15T17:55:21.182Z,48.77
2019-02-15T17:57:48.126Z,55.83
2019-02-15T18:00:17.481Z,52.53
2019-02-15T18:02:44.392Z,54.83
2019-02-15T18:05:17.076Z,51.30
2019-02-15T18:07:45.200Z,53.40
2019-02-15T18:10:12.255Z,52.30
2019-02-15T18:12:39.081Z,53.60
2019-02-15T18:15:06.120Z,48.17
2019-02-15T18:17:33.011Z,45.93
2019-02-15T18:19:59.849Z,42.90
2019-02-15T18:22:26.894Z,46.83
2019-02-15T18:24:53.830Z,46.07
2019-02-15T18:27:20.674Z,43.33
2019-02-15T18:29:47.511Z,41.80
2019-02-15T18:32:14.411Z,43.93
2019-02-15T18:34:42.126Z,42.13
2019-02-15T18:37:08.939Z,37.57
2019-02-15T18:39:35.866Z,39.53
2019-02-15T18:42:02.936Z,40.70
2019-02-15T18:44:29.844Z,36.63
2019-02-15T18:46:56.645Z,38.57
2019-02-15T18:49:23.499Z,35.00
2019-02-15T18:51:50.413Z,40.97
2019-02-15T18:54:17.210Z,44.53
2019-02-15T18:56:44.150Z,44.50
2019-02-15T18:59:10.974Z,40.63
2019-02-15T19:01:37.880Z,42.80
2019-02-15T19:04:04.922Z,43.20
2019-02-15T19:06:31.821Z,50.90
2019-02-15T19:08:58.685Z,49.43
2019-02-15T19:11:25.535Z,45.80
2019-02-15T19:13:52.426Z,50.37
2019-02-15T19:16:19.226Z,46.73
2019-02-15T19:18:46.218Z,46.63
2019-02-15T19:21:13.009Z,44.60
2019-02-15T19:23:39.934Z,51.23
2019-02-15T19:26:07.268Z,49.97
2019-02-15T19:28:34.075Z,54.20
2019-02-15T19:31:01.080Z,55.23
2019-02-15T19:33:28.039Z,52.87
2019-02-15T19:35:56.806Z,55.77
2019-02-15T19:38:23.699Z,55.57
2019-02-15T19:40:50.685Z,45.97
2019-02-15T19:43:17.504Z,47.17
2019-02-15T19:45:44.431Z,44.83
2019-02-15T19:48:11.370Z,47.80
2019-02-15T19:50:38.381Z,47.13
2019-02-15T19:53:05.290Z,50.90
2019-02-15T19:55:32.139Z,46.53
2019-02-15T19:57:59.046Z,44.37
2019-02-15T20:00:26.070Z,43.87
2019-02-15T20:02:53.089Z,43.17
2019-02-15T20:05:19.977Z,44.60
2019-02-15T20:07:46.790Z,41.27
2019-02-15T20:10:15.552Z,46.27
2019-02-15T20:12:42.377Z,46.83
2019-02-15T20:15:11.615Z,41.23
2019-02-15T20:17:38.552Z,45.83
2019-02-15T20:20:07.224Z,45.83
2019-02-15T20:22:34.140Z,47.17
2019-02-15T20:25:00.990Z,49.97
2019-02-15T20:27:27.798Z,49.10
2019-02-15T20:29:54.593Z,47.50
2019-02-15T20:32:21.471Z,51.97
2019-02-15T20:34:48.288Z,45.57
2019-02-15T20:37:15.209Z,49.30
2019-02-15T20:39:42.259Z,43.70
2019-02-15T20:42:09.186Z,39.90
2019-02-15T20:44:35.978Z,36.27
2019-02-15T20:47:02.922Z,33.70
2019-02-15T20:49:29.749Z,39.07
2019-02-15T20:51:56.546Z,29.57
2019-02-15T20:54:23.406Z,33.97
2019-02-15T20:56:50.318Z,29.70
2019-02-15T20:59:17.101Z,28.57
2019-02-15T21:01:43.955Z,28.63
2019-02-15T21:04:10.750Z,34.30
2019-02-15T21:06:37.854Z,31.37
2019-02-15T21:09:05.456Z,35.17
2019-02-15T21:11:32.267Z,30.93
2019-02-15T21:13:59.247Z,28.70
2019-02-15T21:16:26.418Z,29.70
2019-02-15T21:18:53.211Z,27.50
2019-02-15T21:21:20.005Z,28.37
2019-02-15T21:23:46.851Z,31.17
2019-02-15T21:26:13.693Z,29.23
2019-02-15T21:28:40.490Z,26.87
2019-02-15T21:31:07.338Z,26.30
2019-02-15T21:33:34.344Z,29.40
2019-02-15T21:36:01.131Z,26.50
2019-02-15T21:38:27.978Z,25.40
2019-02-15T21:40:54.778Z,23.13
2019-02-15T21:43:21.578Z,25.87
2019-02-15T21:45:48.433Z,25.97
2019-02-15T21:48:15.278Z,26.83
2019-02-15T21:50:42.274Z,24.13
2019-02-15T21:53:09.116Z,23.53
2019-02-15T21:55:35.956Z,24.57
2019-02-15T21:58:02.956Z,25.60
2019-02-15T22:00:31.350Z,22.40
2019-02-15T22:02:58.224Z,27.50
2019-02-15T22:05:25.040Z,27.07
2019-02-15T22:07:51.873Z,25.40
2019-02-15T22:10:18.802Z,26.30
2019-02-15T22:12:45.643Z,23.93
2019-02-15T22:15:12.714Z,24.47
2019-02-15T22:17:39.701Z,23.90
2019-02-15T22:20:07.962Z,25.63
2019-02-15T22:22:35.001Z,26.30
2019-02-15T22:25:01.949Z,22.77
2019-02-15T22:27:28.839Z,26.60
2019-02-15T22:29:55.785Z,23.60
2019-02-15T22:32:22.606Z,25.53
2019-02-15T22:34:49.543Z,23.00
2019-02-15T22:37:16.378Z,22.43
2019-02-15T22:39:43.174Z,20.43
2019-02-15T22:42:09.998Z,20.60
2019-02-15T22:44:36.838Z,23.03
2019-02-15T22:47:03.637Z,22.97
2019-02-15T22:49:30.466Z,22.10
2019-02-15T22:51:57.306Z,19.87
2019-02-15T22:54:24.182Z,21.50
2019-02-15T22:56:50.990Z,20.03
2019-02-15T22:59:17.917Z,19.00
2019-02-15T23:01:44.943Z,20.90
2019-02-15T23:04:11.743Z,20.13
2019-02-15T23:06:38.610Z,20.30
2019-02-15T23:09:08.376Z,20.50
2019-02-15T23:11:35.268Z,20.10
2019-02-15T23:14:02.207Z,18.87
2019-02-15T23:16:29.014Z,19.60
2019-02-15T23:18:55.825Z,20.10
2019-02-15T23:21:22.759Z,18.07
2019-02-15T23:23:49.578Z,18.73
2019-02-15T23:26:16.482Z,19.87
2019-02-15T23:28:43.311Z,20.83
2019-02-15T23:31:10.124Z,21.37
2019-02-15T23:33:37.017Z,18.57
2019-02-15T23:36:03.965Z,21.47
2019-02-15T23:38:30.782Z,16.77
2019-02-15T23:40:57.589Z,19.57
2019-02-15T23:43:24.433Z,17.83
2019-02-15T23:45:51.251Z,19.60
2019-02-15T23:48:18.089Z,19.77
2019-02-15T23:50:53.974Z,18.10
2019-02-15T23:53:15.115Z,17.27
2019-02-15T23:55:41.893Z,16.13
2019-02-15T23:58:08.736Z,17.97
